< < Back
Terminal Aerodrome Forecast


Current Version              Previous Versions:   1  2  3  4  5  6  7  8  9  

Terminal Aerodrome Forecast

881
FTUS42 KGSP 291135
TAFHKY
TAF
KHKY 291135Z 2912/3012 00000KT P6SM SKC
     FM291600 19004KT P6SM SKC
     FM292000 20007KT P6SM FEW250
     FM300900 22008KT P6SM BKN060 OVC250 PROB30 3009/3012 6SM -SHRA
      BR OVC060=



Latest METAR

343
SAUS70 KWBC 291700 RRA
MTRHKY
METAR KHKY 291653Z 00000KT 10SM CLR 08/M12 A3035 RMK AO2 SLP274
T00781122


USA.gov is the U.S. government's official web portal to all federal, state and local government web resources and services.